sensor_id;sensor_type;location;lat;lon;timestamp;temperature;humidity
8824;DHT22;4448;50.904;4.694;2023-06-26T00:00:33;25.20;99.90
8824;DHT22;4448;50.904;4.694;2023-06-26T00:02:58;25.20;99.90
8824;DHT22;4448;50.904;4.694;2023-06-26T00:05:24;25.10;99.90
8824;DHT22;4448;50.904;4.694;2023-06-26T00:07:49;25.10;99.90
8824;DHT22;4448;50.904;4.694;2023-06-26T00:10:15;25.10;99.90
8824;DHT22;4448;50.904;4.694;2023-06-26T00:12:41;25.10;99.90
8824;DHT22;4448;50.904;4.694;2023-06-26T00:15:07;25.10;99.90
8824;DHT22;4448;50.904;4.694;2023-06-26T00:17:33;25.00;99.90
8824;DHT22;4448;50.904;4.694;2023-06-26T00:20:02;25.00;99.90
8824;DHT22;4448;50.904;4.694;2023-06-26T00:22:28;25.00;99.90
8824;DHT22;4448;50.904;4.694;2023-06-26T00:24:54;25.00;99.90
8824;DHT22;4448;50.904;4.694;2023-06-26T00:27:20;24.90;99.90
8824;DHT22;4448;50.904;4.694;2023-06-26T00:29:45;25.00;99.90
8824;DHT22;4448;50.904;4.694;2023-06-26T00:32:11;24.90;99.90
8824;DHT22;4448;50.904;4.694;2023-06-26T00:34:37;24.90;99.90
8824;DHT22;4448;50.904;4.694;2023-06-26T00:37:02;24.80;99.90
8824;DHT22;4448;50.904;4.694;2023-06-26T00:39:29;24.70;99.90
8824;DHT22;4448;50.904;4.694;2023-06-26T00:41:55;24.80;99.90
8824;DHT22;4448;50.904;4.694;2023-06-26T00:44:20;24.80;99.90
8824;DHT22;4448;50.904;4.694;2023-06-26T00:46:47;24.80;99.90
8824;DHT22;4448;50.904;4.694;2023-06-26T00:49:13;24.70;99.90
8824;DHT22;4448;50.904;4.694;2023-06-26T00:51:39;24.70;99.90
8824;DHT22;4448;50.904;4.694;2023-06-26T00:54:05;24.70;99.90
8824;DHT22;4448;50.904;4.694;2023-06-26T00:56:31;24.60;99.90
8824;DHT22;4448;50.904;4.694;2023-06-26T00:58:58;24.60;99.90
8824;DHT22;4448;50.904;4.694;2023-06-26T01:01:23;24.60;99.90
8824;DHT22;4448;50.904;4.694;2023-06-26T01:03:51;24.60;99.90
8824;DHT22;4448;50.904;4.694;2023-06-26T01:06:21;24.60;99.90
8824;DHT22;4448;50.904;4.694;2023-06-26T01:08:47;24.50;99.90
8824;DHT22;4448;50.904;4.694;2023-06-26T01:11:14;24.50;99.90
8824;DHT22;4448;50.904;4.694;2023-06-26T01:13:42;24.40;99.90
8824;DHT22;4448;50.904;4.694;2023-06-26T01:16:09;24.40;99.90
8824;DHT22;4448;50.904;4.694;2023-06-26T01:18:36;24.40;99.90
8824;DHT22;4448;50.904;4.694;2023-06-26T01:21:03;24.40;99.90
8824;DHT22;4448;50.904;4.694;2023-06-26T01:26:23;24.30;99.90
8824;DHT22;4448;50.904;4.694;2023-06-26T01:28:51;24.30;99.90
8824;DHT22;4448;50.904;4.694;2023-06-26T01:31:19;24.30;99.90
8824;DHT22;4448;50.904;4.694;2023-06-26T01:33:45;24.20;99.90
8824;DHT22;4448;50.904;4.694;2023-06-26T01:36:11;24.10;99.90
8824;DHT22;4448;50.904;4.694;2023-06-26T01:38:37;24.20;99.90
8824;DHT22;4448;50.904;4.694;2023-06-26T01:41:04;24.10;99.90
8824;DHT22;4448;50.904;4.694;2023-06-26T01:43:36;24.10;99.90
8824;DHT22;4448;50.904;4.694;2023-06-26T01:46:13;24.00;99.90
8824;DHT22;4448;50.904;4.694;2023-06-26T01:48:55;24.00;99.90
8824;DHT22;4448;50.904;4.694;2023-06-26T01:51:30;24.00;99.90
8824;DHT22;4448;50.904;4.694;2023-06-26T01:53:57;24.00;99.90
8824;DHT22;4448;50.904;4.694;2023-06-26T01:56:24;24.00;99.90
8824;DHT22;4448;50.904;4.694;2023-06-26T01:58:50;24.00;99.90
8824;DHT22;4448;50.904;4.694;2023-06-26T02:01:20;23.90;99.90
8824;DHT22;4448;50.904;4.694;2023-06-26T02:03:47;23.90;99.90
8824;DHT22;4448;50.904;4.694;2023-06-26T02:06:13;23.90;99.90
8824;DHT22;4448;50.904;4.694;2023-06-26T02:08:39;23.80;99.90
8824;DHT22;4448;50.904;4.694;2023-06-26T02:11:05;23.80;99.90
8824;DHT22;4448;50.904;4.694;2023-06-26T02:13:30;23.80;99.90
8824;DHT22;4448;50.904;4.694;2023-06-26T02:15:56;23.80;99.90
8824;DHT22;4448;50.904;4.694;2023-06-26T02:18:22;23.80;99.90
8824;DHT22;4448;50.904;4.694;2023-06-26T02:20:49;23.70;99.90
8824;DHT22;4448;50.904;4.694;2023-06-26T02:23:14;23.70;99.90
8824;DHT22;4448;50.904;4.694;2023-06-26T02:25:40;23.70;99.90
8824;DHT22;4448;50.904;4.694;2023-06-26T02:28:06;23.70;99.90
8824;DHT22;4448;50.904;4.694;2023-06-26T02:30:31;23.70;99.90
8824;DHT22;4448;50.904;4.694;2023-06-26T02:32:57;23.60;99.90
8824;DHT22;4448;50.904;4.694;2023-06-26T02:35:22;23.60;99.90
8824;DHT22;4448;50.904;4.694;2023-06-26T02:37:48;23.60;99.90
8824;DHT22;4448;50.904;4.694;2023-06-26T02:40:14;23.60;99.90
8824;DHT22;4448;50.904;4.694;2023-06-26T02:42:40;23.20;99.90
8824;DHT22;4448;50.904;4.694;2023-06-26T02:45:06;23.50;99.90
8824;DHT22;4448;50.904;4.694;2023-06-26T02:47:31;23.50;99.90
8824;DHT22;4448;50.904;4.694;2023-06-26T02:49:57;23.50;99.90
8824;DHT22;4448;50.904;4.694;2023-06-26T02:52:23;23.40;99.90
8824;DHT22;4448;50.904;4.694;2023-06-26T02:54:48;23.40;99.90
8824;DHT22;4448;50.904;4.694;2023-06-26T02:57:14;23.40;99.90
8824;DHT22;4448;50.904;4.694;2023-06-26T02:59:40;23.40;99.90
8824;DHT22;4448;50.904;4.694;2023-06-26T03:02:06;23.30;99.90
8824;DHT22;4448;50.904;4.694;2023-06-26T03:04:31;23.30;99.90
8824;DHT22;4448;50.904;4.694;2023-06-26T03:06:57;23.30;99.90
8824;DHT22;4448;50.904;4.694;2023-06-26T03:09:23;23.40;99.90
8824;DHT22;4448;50.904;4.694;2023-06-26T03:11:48;23.30;99.90
8824;DHT22;4448;50.904;4.694;2023-06-26T03:14:14;23.30;99.90
8824;DHT22;4448;50.904;4.694;2023-06-26T03:16:40;23.30;99.90
8824;DHT22;4448;50.904;4.694;2023-06-26T03:19:06;23.30;99.90
8824;DHT22;4448;50.904;4.694;2023-06-26T03:21:32;23.30;99.90
8824;DHT22;4448;50.904;4.694;2023-06-26T03:23:58;23.30;99.90
8824;DHT22;4448;50.904;4.694;2023-06-26T03:26:23;23.30;99.90
8824;DHT22;4448;50.904;4.694;2023-06-26T03:28:53;23.30;99.90
8824;DHT22;4448;50.904;4.694;2023-06-26T03:31:19;23.30;99.90
8824;DHT22;4448;50.904;4.694;2023-06-26T03:33:45;23.30;99.90
8824;DHT22;4448;50.904;4.694;2023-06-26T03:36:10;23.20;99.90
8824;DHT22;4448;50.904;4.694;2023-06-26T03:38:36;23.20;99.90
8824;DHT22;4448;50.904;4.694;2023-06-26T03:41:02;23.20;99.90
8824;DHT22;4448;50.904;4.694;2023-06-26T03:43:28;23.10;99.90
8824;DHT22;4448;50.904;4.694;2023-06-26T03:45:53;23.10;99.90
8824;DHT22;4448;50.904;4.694;2023-06-26T03:48:19;23.10;99.90
8824;DHT22;4448;50.904;4.694;2023-06-26T03:50:45;23.10;99.90
8824;DHT22;4448;50.904;4.694;2023-06-26T03:53:10;23.00;99.90
8824;DHT22;4448;50.904;4.694;2023-06-26T03:55:37;23.00;99.90
8824;DHT22;4448;50.904;4.694;2023-06-26T03:58:04;23.10;99.90
8824;DHT22;4448;50.904;4.694;2023-06-26T04:00:30;23.00;99.90
8824;DHT22;4448;50.904;4.694;2023-06-26T04:02:55;23.00;99.90
8824;DHT22;4448;50.904;4.694;2023-06-26T04:05:23;23.00;99.90
8824;DHT22;4448;50.904;4.694;2023-06-26T04:07:52;22.90;99.90
8824;DHT22;4448;50.904;4.694;2023-06-26T04:10:18;22.90;99.90
8824;DHT22;4448;50.904;4.694;2023-06-26T04:12:46;23.00;99.90
8824;DHT22;4448;50.904;4.694;2023-06-26T04:15:11;22.90;99.90
8824;DHT22;4448;50.904;4.694;2023-06-26T04:17:37;22.90;99.90
8824;DHT22;4448;50.904;4.694;2023-06-26T04:20:03;22.80;99.90
8824;DHT22;4448;50.904;4.694;2023-06-26T04:22:32;22.80;99.90
8824;DHT22;4448;50.904;4.694;2023-06-26T04:24:58;22.80;99.90
8824;DHT22;4448;50.904;4.694;2023-06-26T04:27:23;22.80;99.90
8824;DHT22;4448;50.904;4.694;2023-06-26T04:29:49;22.90;99.90
8824;DHT22;4448;50.904;4.694;2023-06-26T04:32:15;22.80;99.90
8824;DHT22;4448;50.904;4.694;2023-06-26T04:34:40;22.80;99.90
8824;DHT22;4448;50.904;4.694;2023-06-26T04:37:09;22.70;99.90
8824;DHT22;4448;50.904;4.694;2023-06-26T04:39:38;22.70;99.90
8824;DHT22;4448;50.904;4.694;2023-06-26T04:42:05;22.70;99.90
8824;DHT22;4448;50.904;4.694;2023-06-26T04:44:31;22.70;99.90
8824;DHT22;4448;50.904;4.694;2023-06-26T04:46:57;22.70;99.90
8824;DHT22;4448;50.904;4.694;2023-06-26T04:49:23;22.70;99.90
8824;DHT22;4448;50.904;4.694;2023-06-26T04:51:48;22.70;99.90
8824;DHT22;4448;50.904;4.694;2023-06-26T04:54:16;22.70;99.90
8824;DHT22;4448;50.904;4.694;2023-06-26T04:56:42;22.70;99.90
8824;DHT22;4448;50.904;4.694;2023-06-26T04:59:09;22.60;99.90
8824;DHT22;4448;50.904;4.694;2023-06-26T05:01:39;22.60;99.90
8824;DHT22;4448;50.904;4.694;2023-06-26T05:04:05;22.60;99.90
8824;DHT22;4448;50.904;4.694;2023-06-26T05:06:31;22.60;99.90
8824;DHT22;4448;50.904;4.694;2023-06-26T05:08:56;22.50;99.90
8824;DHT22;4448;50.904;4.694;2023-06-26T05:11:22;22.50;99.90
8824;DHT22;4448;50.904;4.694;2023-06-26T05:13:49;22.50;99.90
8824;DHT22;4448;50.904;4.694;2023-06-26T05:16:14;22.60;99.90
8824;DHT22;4448;50.904;4.694;2023-06-26T05:18:40;22.50;99.90
8824;DHT22;4448;50.904;4.694;2023-06-26T05:21:06;22.50;99.90
8824;DHT22;4448;50.904;4.694;2023-06-26T05:23:33;22.50;99.90
8824;DHT22;4448;50.904;4.694;2023-06-26T05:26:03;22.50;99.90
8824;DHT22;4448;50.904;4.694;2023-06-26T05:28:30;22.50;99.90
8824;DHT22;4448;50.904;4.694;2023-06-26T05:30:59;22.40;99.90
8824;DHT22;4448;50.904;4.694;2023-06-26T05:33:26;22.40;99.90
8824;DHT22;4448;50.904;4.694;2023-06-26T05:35:52;22.60;99.90
8824;DHT22;4448;50.904;4.694;2023-06-26T05:38:19;22.40;99.90
8824;DHT22;4448;50.904;4.694;2023-06-26T05:40:44;22.50;99.90
8824;DHT22;4448;50.904;4.694;2023-06-26T05:43:11;22.50;99.90
8824;DHT22;4448;50.904;4.694;2023-06-26T05:45:36;22.50;99.90
8824;DHT22;4448;50.904;4.694;2023-06-26T05:48:02;22.40;99.90
8824;DHT22;4448;50.904;4.694;2023-06-26T05:50:28;22.40;99.90
8824;DHT22;4448;50.904;4.694;2023-06-26T05:52:54;22.30;99.90
8824;DHT22;4448;50.904;4.694;2023-06-26T05:55:21;22.30;99.90
8824;DHT22;4448;50.904;4.694;2023-06-26T05:57:47;22.40;99.90
8824;DHT22;4448;50.904;4.694;2023-06-26T06:00:13;22.30;99.90
8824;DHT22;4448;50.904;4.694;2023-06-26T06:02:40;21.10;99.90
8824;DHT22;4448;50.904;4.694;2023-06-26T06:05:07;22.30;99.90
8824;DHT22;4448;50.904;4.694;2023-06-26T06:07:33;22.30;99.90
8824;DHT22;4448;50.904;4.694;2023-06-26T06:10:00;22.40;99.90
8824;DHT22;4448;50.904;4.694;2023-06-26T06:12:26;22.00;99.90
8824;DHT22;4448;50.904;4.694;2023-06-26T06:14:52;22.30;99.90
8824;DHT22;4448;50.904;4.694;2023-06-26T06:17:18;22.30;99.90
8824;DHT22;4448;50.904;4.694;2023-06-26T06:19:45;22.30;99.90
8824;DHT22;4448;50.904;4.694;2023-06-26T06:22:12;22.30;99.90
8824;DHT22;4448;50.904;4.694;2023-06-26T06:24:39;22.40;99.90
8824;DHT22;4448;50.904;4.694;2023-06-26T06:27:04;22.30;99.90
8824;DHT22;4448;50.904;4.694;2023-06-26T06:29:30;22.40;99.90
8824;DHT22;4448;50.904;4.694;2023-06-26T06:31:56;22.30;99.90
8824;DHT22;4448;50.904;4.694;2023-06-26T06:34:22;22.30;99.90
8824;DHT22;4448;50.904;4.694;2023-06-26T06:36:47;22.40;99.90
8824;DHT22;4448;50.904;4.694;2023-06-26T06:39:13;22.30;99.90
8824;DHT22;4448;50.904;4.694;2023-06-26T06:41:39;22.30;99.90
8824;DHT22;4448;50.904;4.694;2023-06-26T06:44:05;22.40;99.90
8824;DHT22;4448;50.904;4.694;2023-06-26T06:46:30;22.40;99.90
8824;DHT22;4448;50.904;4.694;2023-06-26T06:48:56;22.40;99.90
8824;DHT22;4448;50.904;4.694;2023-06-26T06:51:22;22.30;99.90
8824;DHT22;4448;50.904;4.694;2023-06-26T06:53:48;22.40;99.90
8824;DHT22;4448;50.904;4.694;2023-06-26T06:56:13;22.50;99.90
8824;DHT22;4448;50.904;4.694;2023-06-26T06:58:39;22.40;99.90
8824;DHT22;4448;50.904;4.694;2023-06-26T07:01:09;22.50;99.90
8824;DHT22;4448;50.904;4.694;2023-06-26T07:03:34;22.50;99.90
8824;DHT22;4448;50.904;4.694;2023-06-26T07:06:01;22.50;99.90
8824;DHT22;4448;50.904;4.694;2023-06-26T07:08:26;22.40;99.90
8824;DHT22;4448;50.904;4.694;2023-06-26T07:10:52;22.50;99.90
8824;DHT22;4448;50.904;4.694;2023-06-26T07:13:18;22.50;99.90
8824;DHT22;4448;50.904;4.694;2023-06-26T07:15:45;22.50;99.90
8824;DHT22;4448;50.904;4.694;2023-06-26T07:18:11;22.50;99.90
8824;DHT22;4448;50.904;4.694;2023-06-26T07:20:36;22.50;99.90
8824;DHT22;4448;50.904;4.694;2023-06-26T07:23:02;22.70;99.90
8824;DHT22;4448;50.904;4.694;2023-06-26T07:25:27;22.70;99.90
8824;DHT22;4448;50.904;4.694;2023-06-26T07:27:53;22.60;99.90
8824;DHT22;4448;50.904;4.694;2023-06-26T07:30:19;22.50;99.90
8824;DHT22;4448;50.904;4.694;2023-06-26T07:32:45;22.60;99.90
8824;DHT22;4448;50.904;4.694;2023-06-26T07:35:10;22.60;99.90
8824;DHT22;4448;50.904;4.694;2023-06-26T07:37:36;22.60;99.90
8824;DHT22;4448;50.904;4.694;2023-06-26T07:40:02;22.60;99.90
8824;DHT22;4448;50.904;4.694;2023-06-26T07:42:29;22.70;99.90
8824;DHT22;4448;50.904;4.694;2023-06-26T07:44:54;22.70;99.90
8824;DHT22;4448;50.904;4.694;2023-06-26T07:47:20;22.70;99.90
8824;DHT22;4448;50.904;4.694;2023-06-26T07:49:45;22.90;99.90
8824;DHT22;4448;50.904;4.694;2023-06-26T07:52:11;22.80;99.90
8824;DHT22;4448;50.904;4.694;2023-06-26T07:54:37;22.80;99.90
8824;DHT22;4448;50.904;4.694;2023-06-26T07:57:04;22.90;99.90
8824;DHT22;4448;50.904;4.694;2023-06-26T07:59:32;22.90;99.90
8824;DHT22;4448;50.904;4.694;2023-06-26T08:01:58;22.90;99.90
8824;DHT22;4448;50.904;4.694;2023-06-26T08:04:26;22.90;99.90
8824;DHT22;4448;50.904;4.694;2023-06-26T08:06:54;22.90;99.90
8824;DHT22;4448;50.904;4.694;2023-06-26T08:09:22;23.00;99.90
8824;DHT22;4448;50.904;4.694;2023-06-26T08:11:48;23.00;99.90
8824;DHT22;4448;50.904;4.694;2023-06-26T08:14:13;23.00;99.90
8824;DHT22;4448;50.904;4.694;2023-06-26T08:16:40;23.00;99.90
8824;DHT22;4448;50.904;4.694;2023-06-26T08:19:07;23.00;99.90
8824;DHT22;4448;50.904;4.694;2023-06-26T08:21:33;23.20;99.90
8824;DHT22;4448;50.904;4.694;2023-06-26T08:23:59;23.00;99.90
8824;DHT22;4448;50.904;4.694;2023-06-26T08:26:24;23.00;99.90
8824;DHT22;4448;50.904;4.694;2023-06-26T08:28:50;23.00;99.90
8824;DHT22;4448;50.904;4.694;2023-06-26T08:31:16;23.00;99.90
8824;DHT22;4448;50.904;4.694;2023-06-26T08:33:42;23.00;99.90
8824;DHT22;4448;50.904;4.694;2023-06-26T08:36:08;23.10;99.90
8824;DHT22;4448;50.904;4.694;2023-06-26T08:38:33;23.10;99.90
8824;DHT22;4448;50.904;4.694;2023-06-26T08:40:59;23.20;99.90
8824;DHT22;4448;50.904;4.694;2023-06-26T08:43:26;23.30;99.90
8824;DHT22;4448;50.904;4.694;2023-06-26T08:45:52;23.20;99.90
8824;DHT22;4448;50.904;4.694;2023-06-26T08:48:18;23.30;99.90
8824;DHT22;4448;50.904;4.694;2023-06-26T08:50:48;23.30;99.90
8824;DHT22;4448;50.904;4.694;2023-06-26T08:56:19;23.30;99.90
8824;DHT22;4448;50.904;4.694;2023-06-26T08:58:48;23.30;99.90
8824;DHT22;4448;50.904;4.694;2023-06-26T09:01:13;23.40;99.90
8824;DHT22;4448;50.904;4.694;2023-06-26T09:03:39;23.40;99.90
8824;DHT22;4448;50.904;4.694;2023-06-26T09:06:07;23.50;99.90
8824;DHT22;4448;50.904;4.694;2023-06-26T09:08:32;23.50;99.90
8824;DHT22;4448;50.904;4.694;2023-06-26T09:10:58;23.60;99.90
8824;DHT22;4448;50.904;4.694;2023-06-26T09:13:25;24.00;99.90
8824;DHT22;4448;50.904;4.694;2023-06-26T09:15:54;23.70;99.90
8824;DHT22;4448;50.904;4.694;2023-06-26T09:18:21;23.70;99.90
8824;DHT22;4448;50.904;4.694;2023-06-26T09:20:47;23.80;99.90
8824;DHT22;4448;50.904;4.694;2023-06-26T09:23:13;24.00;99.90
8824;DHT22;4448;50.904;4.694;2023-06-26T09:25:40;24.00;99.90
8824;DHT22;4448;50.904;4.694;2023-06-26T09:28:07;23.50;99.90
8824;DHT22;4448;50.904;4.694;2023-06-26T09:30:34;24.10;99.90
8824;DHT22;4448;50.904;4.694;2023-06-26T09:33:17;24.10;99.90
8824;DHT22;4448;50.904;4.694;2023-06-26T09:35:43;24.30;99.90
8824;DHT22;4448;50.904;4.694;2023-06-26T09:38:10;24.20;99.90
8824;DHT22;4448;50.904;4.694;2023-06-26T09:40:36;24.20;99.90
8824;DHT22;4448;50.904;4.694;2023-06-26T09:43:07;24.10;99.90
8824;DHT22;4448;50.904;4.694;2023-06-26T09:45:36;24.10;99.90
8824;DHT22;4448;50.904;4.694;2023-06-26T09:48:03;24.10;99.90
8824;DHT22;4448;50.904;4.694;2023-06-26T09:50:29;24.10;99.90
8824;DHT22;4448;50.904;4.694;2023-06-26T09:52:57;24.10;99.90
8824;DHT22;4448;50.904;4.694;2023-06-26T09:55:25;24.10;99.90
8824;DHT22;4448;50.904;4.694;2023-06-26T09:57:51;24.30;99.90
8824;DHT22;4448;50.904;4.694;2023-06-26T10:00:18;24.30;99.90
8824;DHT22;4448;50.904;4.694;2023-06-26T10:02:44;24.40;99.90
8824;DHT22;4448;50.904;4.694;2023-06-26T10:05:10;24.60;99.90
8824;DHT22;4448;50.904;4.694;2023-06-26T10:07:37;24.70;99.90
8824;DHT22;4448;50.904;4.694;2023-06-26T10:10:04;24.70;99.90
8824;DHT22;4448;50.904;4.694;2023-06-26T10:12:31;24.70;99.90
8824;DHT22;4448;50.904;4.694;2023-06-26T10:14:58;24.70;99.90
8824;DHT22;4448;50.904;4.694;2023-06-26T10:17:28;24.80;99.90
8824;DHT22;4448;50.904;4.694;2023-06-26T10:19:58;24.90;99.90
8824;DHT22;4448;50.904;4.694;2023-06-26T10:22:29;24.90;99.90
8824;DHT22;4448;50.904;4.694;2023-06-26T10:24:58;24.90;99.90
8824;DHT22;4448;50.904;4.694;2023-06-26T10:27:29;24.90;99.90
8824;DHT22;4448;50.904;4.694;2023-06-26T10:30:03;24.80;99.90
8824;DHT22;4448;50.904;4.694;2023-06-26T10:32:30;24.80;99.90
8824;DHT22;4448;50.904;4.694;2023-06-26T10:34:57;24.90;99.90
8824;DHT22;4448;50.904;4.694;2023-06-26T10:37:44;25.00;99.90
8824;DHT22;4448;50.904;4.694;2023-06-26T10:40:11;25.20;99.90
8824;DHT22;4448;50.904;4.694;2023-06-26T10:42:39;25.30;99.90
8824;DHT22;4448;50.904;4.694;2023-06-26T10:45:15;25.40;99.90
8824;DHT22;4448;50.904;4.694;2023-06-26T10:47:44;25.50;99.90
8824;DHT22;4448;50.904;4.694;2023-06-26T10:50:20;25.60;99.90
8824;DHT22;4448;50.904;4.694;2023-06-26T10:55:32;25.70;99.90
8824;DHT22;4448;50.904;4.694;2023-06-26T10:57:58;25.70;99.90
8824;DHT22;4448;50.904;4.694;2023-06-26T11:00:23;25.80;99.90
8824;DHT22;4448;50.904;4.694;2023-06-26T11:02:50;25.90;99.90
8824;DHT22;4448;50.904;4.694;2023-06-26T11:05:27;25.90;99.90
8824;DHT22;4448;50.904;4.694;2023-06-26T11:08:07;26.10;99.90
8824;DHT22;4448;50.904;4.694;2023-06-26T11:10:53;26.20;99.90
8824;DHT22;4448;50.904;4.694;2023-06-26T11:13:20;26.30;99.90
8824;DHT22;4448;50.904;4.694;2023-06-26T11:15:47;26.40;99.90
8824;DHT22;4448;50.904;4.694;2023-06-26T11:18:13;26.50;99.90
8824;DHT22;4448;50.904;4.694;2023-06-26T11:20:40;26.50;99.90
8824;DHT22;4448;50.904;4.694;2023-06-26T11:23:07;26.30;99.90
8824;DHT22;4448;50.904;4.694;2023-06-26T11:25:35;26.70;99.90
8824;DHT22;4448;50.904;4.694;2023-06-26T11:28:03;26.70;99.90
8824;DHT22;4448;50.904;4.694;2023-06-26T11:30:29;26.50;99.90
8824;DHT22;4448;50.904;4.694;2023-06-26T11:33:08;26.50;99.90
8824;DHT22;4448;50.904;4.694;2023-06-26T11:35:34;26.50;99.90
8824;DHT22;4448;50.904;4.694;2023-06-26T11:38:02;26.60;99.90
8824;DHT22;4448;50.904;4.694;2023-06-26T11:40:33;26.80;99.90
8824;DHT22;4448;50.904;4.694;2023-06-26T11:42:59;27.00;99.90
8824;DHT22;4448;50.904;4.694;2023-06-26T11:45:28;27.30;99.90
8824;DHT22;4448;50.904;4.694;2023-06-26T11:47:55;27.50;99.90
8824;DHT22;4448;50.904;4.694;2023-06-26T11:50:21;27.60;99.90
8824;DHT22;4448;50.904;4.694;2023-06-26T11:52:56;27.50;99.90
8824;DHT22;4448;50.904;4.694;2023-06-26T11:55:26;27.50;99.90
8824;DHT22;4448;50.904;4.694;2023-06-26T11:57:56;27.40;99.90
8824;DHT22;4448;50.904;4.694;2023-06-26T12:00:23;27.30;99.90
8824;DHT22;4448;50.904;4.694;2023-06-26T12:02:49;27.20;99.90
8824;DHT22;4448;50.904;4.694;2023-06-26T12:05:17;27.00;99.90
8824;DHT22;4448;50.904;4.694;2023-06-26T12:07:43;26.90;99.90
8824;DHT22;4448;50.904;4.694;2023-06-26T12:10:12;26.80;99.90
8824;DHT22;4448;50.904;4.694;2023-06-26T12:12:39;26.70;99.90
8824;DHT22;4448;50.904;4.694;2023-06-26T12:15:07;26.80;99.90
8824;DHT22;4448;50.904;4.694;2023-06-26T12:17:33;26.90;99.90
8824;DHT22;4448;50.904;4.694;2023-06-26T12:19:59;26.90;99.90
8824;DHT22;4448;50.904;4.694;2023-06-26T12:22:33;27.00;99.90
8824;DHT22;4448;50.904;4.694;2023-06-26T12:24:59;26.90;99.90
8824;DHT22;4448;50.904;4.694;2023-06-26T12:27:25;26.40;99.90
8824;DHT22;4448;50.904;4.694;2023-06-26T12:29:53;26.80;99.90
8824;DHT22;4448;50.904;4.694;2023-06-26T12:32:19;26.70;99.90
8824;DHT22;4448;50.904;4.694;2023-06-26T12:34:48;26.60;99.90
8824;DHT22;4448;50.904;4.694;2023-06-26T12:37:16;26.60;99.90
8824;DHT22;4448;50.904;4.694;2023-06-26T12:39:59;26.60;99.90
8824;DHT22;4448;50.904;4.694;2023-06-26T12:42:27;26.50;99.90
8824;DHT22;4448;50.904;4.694;2023-06-26T12:44:54;26.60;99.90
8824;DHT22;4448;50.904;4.694;2023-06-26T12:47:28;26.70;99.90
8824;DHT22;4448;50.904;4.694;2023-06-26T12:49:56;26.50;99.90
8824;DHT22;4448;50.904;4.694;2023-06-26T12:52:23;26.80;99.90
8824;DHT22;4448;50.904;4.694;2023-06-26T12:54:53;26.80;99.90
8824;DHT22;4448;50.904;4.694;2023-06-26T12:57:19;26.90;99.90
8824;DHT22;4448;50.904;4.694;2023-06-26T12:59:45;26.90;99.90
8824;DHT22;4448;50.904;4.694;2023-06-26T13:02:11;26.90;99.90
8824;DHT22;4448;50.904;4.694;2023-06-26T13:04:37;27.00;99.90
8824;DHT22;4448;50.904;4.694;2023-06-26T13:07:06;27.00;99.90
8824;DHT22;4448;50.904;4.694;2023-06-26T13:09:35;27.10;99.90
8824;DHT22;4448;50.904;4.694;2023-06-26T13:12:02;27.00;99.90
8824;DHT22;4448;50.904;4.694;2023-06-26T13:14:32;27.10;99.90
8824;DHT22;4448;50.904;4.694;2023-06-26T13:16:58;27.10;99.90
8824;DHT22;4448;50.904;4.694;2023-06-26T13:19:24;27.00;99.90
8824;DHT22;4448;50.904;4.694;2023-06-26T13:21:49;27.00;99.90
8824;DHT22;4448;50.904;4.694;2023-06-26T13:24:15;26.90;99.90
8824;DHT22;4448;50.904;4.694;2023-06-26T13:26:41;27.10;99.90
8824;DHT22;4448;50.904;4.694;2023-06-26T13:29:06;26.80;99.90
8824;DHT22;4448;50.904;4.694;2023-06-26T13:31:32;26.80;99.90
8824;DHT22;4448;50.904;4.694;2023-06-26T13:33:59;26.70;99.90
8824;DHT22;4448;50.904;4.694;2023-06-26T13:36:25;26.70;99.90
8824;DHT22;4448;50.904;4.694;2023-06-26T13:38:51;26.70;99.90
8824;DHT22;4448;50.904;4.694;2023-06-26T13:41:24;26.70;99.90
8824;DHT22;4448;50.904;4.694;2023-06-26T13:43:51;26.60;99.90
8824;DHT22;4448;50.904;4.694;2023-06-26T13:46:17;26.50;99.90
8824;DHT22;4448;50.904;4.694;2023-06-26T13:48:44;26.50;99.90
8824;DHT22;4448;50.904;4.694;2023-06-26T13:51:10;26.40;99.90
8824;DHT22;4448;50.904;4.694;2023-06-26T13:53:35;26.40;99.90
8824;DHT22;4448;50.904;4.694;2023-06-26T13:56:01;26.40;99.90
8824;DHT22;4448;50.904;4.694;2023-06-26T13:58:27;26.40;99.90
8824;DHT22;4448;50.904;4.694;2023-06-26T14:00:53;26.50;99.90
8824;DHT22;4448;50.904;4.694;2023-06-26T14:03:19;26.50;99.90
8824;DHT22;4448;50.904;4.694;2023-06-26T14:05:45;26.60;99.90
8824;DHT22;4448;50.904;4.694;2023-06-26T14:08:10;26.50;99.90
8824;DHT22;4448;50.904;4.694;2023-06-26T14:10:37;26.50;99.90
8824;DHT22;4448;50.904;4.694;2023-06-26T14:13:05;26.50;99.90
8824;DHT22;4448;50.904;4.694;2023-06-26T14:15:32;26.50;99.90
8824;DHT22;4448;50.904;4.694;2023-06-26T14:17:58;26.40;99.90
8824;DHT22;4448;50.904;4.694;2023-06-26T14:20:24;26.30;99.90
8824;DHT22;4448;50.904;4.694;2023-06-26T14:22:50;26.20;99.90
8824;DHT22;4448;50.904;4.694;2023-06-26T14:25:16;26.20;99.90
8824;DHT22;4448;50.904;4.694;2023-06-26T14:27:42;26.10;99.90
8824;DHT22;4448;50.904;4.694;2023-06-26T14:30:08;26.10;99.90
8824;DHT22;4448;50.904;4.694;2023-06-26T14:32:35;26.10;99.90
8824;DHT22;4448;50.904;4.694;2023-06-26T14:35:01;26.00;99.90
8824;DHT22;4448;50.904;4.694;2023-06-26T14:37:28;26.10;99.90
8824;DHT22;4448;50.904;4.694;2023-06-26T14:39:54;26.00;99.90
8824;DHT22;4448;50.904;4.694;2023-06-26T14:42:20;25.90;99.90
8824;DHT22;4448;50.904;4.694;2023-06-26T14:44:45;25.90;99.90
8824;DHT22;4448;50.904;4.694;2023-06-26T14:47:16;25.90;99.90
8824;DHT22;4448;50.904;4.694;2023-06-26T14:49:42;25.80;99.90
8824;DHT22;4448;50.904;4.694;2023-06-26T14:52:08;25.80;99.90
8824;DHT22;4448;50.904;4.694;2023-06-26T14:54:34;25.80;99.90
8824;DHT22;4448;50.904;4.694;2023-06-26T14:57:05;25.80;99.90
8824;DHT22;4448;50.904;4.694;2023-06-26T14:59:30;25.80;99.90
8824;DHT22;4448;50.904;4.694;2023-06-26T15:01:56;25.80;99.90
8824;DHT22;4448;50.904;4.694;2023-06-26T15:04:22;25.80;99.90
8824;DHT22;4448;50.904;4.694;2023-06-26T15:06:47;25.70;99.90
8824;DHT22;4448;50.904;4.694;2023-06-26T15:09:13;25.30;99.90
8824;DHT22;4448;50.904;4.694;2023-06-26T15:11:39;25.70;99.90
8824;DHT22;4448;50.904;4.694;2023-06-26T15:14:04;25.60;99.90
8824;DHT22;4448;50.904;4.694;2023-06-26T15:16:30;25.70;99.90
8824;DHT22;4448;50.904;4.694;2023-06-26T15:18:55;25.60;99.90
8824;DHT22;4448;50.904;4.694;2023-06-26T15:21:21;25.70;99.90
8824;DHT22;4448;50.904;4.694;2023-06-26T15:23:47;25.70;99.90
8824;DHT22;4448;50.904;4.694;2023-06-26T15:26:13;25.70;99.90
8824;DHT22;4448;50.904;4.694;2023-06-26T15:28:42;25.70;99.90
8824;DHT22;4448;50.904;4.694;2023-06-26T15:31:07;25.70;99.90
8824;DHT22;4448;50.904;4.694;2023-06-26T15:33:33;25.70;99.90
8824;DHT22;4448;50.904;4.694;2023-06-26T15:35:59;25.70;99.90
8824;DHT22;4448;50.904;4.694;2023-06-26T15:38:25;25.70;99.90
8824;DHT22;4448;50.904;4.694;2023-06-26T15:40:52;25.60;99.90
8824;DHT22;4448;50.904;4.694;2023-06-26T15:43:17;25.60;99.90
8824;DHT22;4448;50.904;4.694;2023-06-26T15:45:43;25.60;99.90
8824;DHT22;4448;50.904;4.694;2023-06-26T15:48:09;25.60;99.90
8824;DHT22;4448;50.904;4.694;2023-06-26T15:50:34;25.60;99.90
8824;DHT22;4448;50.904;4.694;2023-06-26T15:53:02;25.50;99.90
8824;DHT22;4448;50.904;4.694;2023-06-26T15:55:28;25.50;99.90
8824;DHT22;4448;50.904;4.694;2023-06-26T15:57:53;25.50;99.90
8824;DHT22;4448;50.904;4.694;2023-06-26T16:00:19;25.40;99.90
8824;DHT22;4448;50.904;4.694;2023-06-26T16:02:45;25.30;99.90
8824;DHT22;4448;50.904;4.694;2023-06-26T16:05:11;25.30;99.90
8824;DHT22;4448;50.904;4.694;2023-06-26T16:07:36;25.30;99.90